Beef Island, British Virgin Islands

9:41 AM AST on October 31, 2014 (GMT -0400)
Beef I International | Change Station
CLOSE
Current Station
Airport
Location: Beef Island,
Elevation: 13 ft
Nearby Weather Stations

Elev 13 ft 18.44 °N, 64.54 °W | Updated 41 minutes ago

Scattered Clouds
Scattered Clouds
84 °F
Feels Like 94 °F
N
6
Wind Variable Wind from South

Today
High -- | Low -- °F
--% Chance of Precip.
Yesterday
High -- | Low -- °F
Precip. -- in
6:17 AM 5:45 PM
First Quarter, 55% visible
Pressure 29.92 in
Visibility 6.2 miles
Clouds Mostly Cloudy 1900 ft
Scattered Clouds 7000 ft
Heat Index 94 °F
Dew Point 77 °F
Humidity 79%
Rainfall 0.00 in
Snow Depth Not available.
UV 3 out of 12
Pollen Not available.
Air Quality Not available.
Flu Activity Not available.
METAR TUPJ 311300Z 19005KT 9999 BKN019 SCT070 29/25 Q1013 RMK A2991

More Conditions Fewer Conditions

Pressure 29.92 in
Visibility 6.2 miles
Clouds Mostly Cloudy 1900 ft
Scattered Clouds 7000 ft
Heat Index 94 °F
Dew Point 77 °F
Humidity 79%
Rainfall 0.00 in
Snow Depth Not available.
UV 3 out of 12
Pollen Not available.
Air Quality Not available.
Flu Activity Not available.
METAR TUPJ 311300Z 19005KT 9999 BKN019 SCT070 29/25 Q1013 RMK A2991

More Conditions Fewer Conditions

10-Day Weather Forecast

Almanac

Astronomy

Oct. 31, 2014 Rise Set
Actual Time
Civil Twilight
Nautical Twilight
Astronomical Twilight
Moon
Length of Visible Light
Length of Day
Tomorrow will be .
, % of the Moon is Illuminated

Today's Extremes

Country Highs Country Lows

Community

WunderPhotos

Upload Photos

1,766,612 photos uploaded!

WunderBlogs® & News

Nearby

Air Quality

  Air Quality AQ Index Pollutant
Not available.

Snow Depth

Station Depth Elevation

Earthquake Activity

City Distance Mag. Time & Date
Minimum magnitude displayed is 2.5.

Coastal Water Temperatures

Place Temperature

Nearby Weather Stations